createdAt,value
2022-12-03T00:02:19.209Z,102344.19
2022-12-03T00:04:45.736Z,102350.28
2022-12-03T00:07:12.147Z,102327.16
2022-12-03T00:09:38.557Z,102339.63
2022-12-03T00:12:05.174Z,102345.75
2022-12-03T00:14:31.600Z,102344.72
2022-12-03T00:16:58.042Z,102343.88
2022-12-03T00:19:24.633Z,102340.38
2022-12-03T00:21:51.027Z,102336.06
2022-12-03T00:24:17.571Z,102335.13
2022-12-03T00:26:43.969Z,102334.19
2022-12-03T00:29:11.278Z,102330.16
2022-12-03T00:31:37.752Z,102328.53
2022-12-03T00:34:04.187Z,102320.09
2022-12-03T00:36:30.644Z,102315.78
2022-12-03T00:38:57.039Z,102325.56
2022-12-03T00:41:23.539Z,102328.38
2022-12-03T00:43:49.932Z,102334.69
2022-12-03T00:46:21.072Z,102327.06
2022-12-03T00:48:48.035Z,102327.94
2022-12-03T00:51:14.471Z,102320.41
2022-12-03T00:53:40.923Z,102335.94
2022-12-03T00:56:07.846Z,102328.84
2022-12-03T00:58:34.353Z,102329.50
2022-12-03T01:01:00.794Z,102329.25
2022-12-03T01:03:27.238Z,102325.56
2022-12-03T01:05:53.968Z,102333.09
2022-12-03T01:08:20.360Z,102317.84
2022-12-03T01:10:46.826Z,102324.69
2022-12-03T01:13:14.323Z,102321.09
2022-12-03T01:15:40.890Z,102318.28
2022-12-03T01:18:09.440Z,102319.03
2022-12-03T01:20:38.576Z,102309.31
2022-12-03T01:23:05.586Z,102316.94
2022-12-03T01:25:32.148Z,102304.59
2022-12-03T01:27:58.577Z,102302.91
2022-12-03T01:30:24.983Z,102309.66
2022-12-03T01:32:51.474Z,102293.13
2022-12-03T01:35:18.037Z,102302.41
2022-12-03T01:37:44.539Z,102298.84
2022-12-03T01:40:15.969Z,102297.03
2022-12-03T01:42:42.752Z,102298.84
2022-12-03T01:45:22.229Z,102292.59
2022-12-03T01:47:48.680Z,102288.28
2022-12-03T01:50:23.344Z,102281.13
2022-12-03T01:52:49.964Z,102289.66
2022-12-03T01:55:20.929Z,102286.19
2022-12-03T01:57:53.970Z,102285.34
2022-12-03T02:00:22.971Z,102270.06
2022-12-03T02:02:53.526Z,102279.63
2022-12-03T02:05:26.315Z,102278.69
2022-12-03T02:07:53.291Z,102287.22
2022-12-03T02:10:25.709Z,102275.22
2022-12-03T02:13:01.350Z,102282.16
2022-12-03T02:15:27.878Z,102278.78
2022-12-03T02:17:55.477Z,102287.53
2022-12-03T02:20:22.440Z,102271.59
2022-12-03T02:23:03.388Z,102293.84
2022-12-03T02:25:32.492Z,102286.78
2022-12-03T02:28:00.642Z,102291.31
2022-12-03T02:30:28.622Z,102280.78
2022-12-03T02:32:56.016Z,102288.50
2022-12-03T02:35:28.766Z,102280.59
2022-12-03T02:38:00.227Z,102277.31
2022-12-03T02:40:31.113Z,102269.59
2022-12-03T02:43:01.345Z,102274.03
2022-12-03T02:45:31.211Z,102275.72
2022-12-03T02:48:22.672Z,102272.22
2022-12-03T02:50:52.834Z,102269.50
2022-12-03T02:53:24.795Z,102269.41
2022-12-03T02:55:54.453Z,102269.31
2022-12-03T02:58:22.608Z,102265.59
2022-12-03T03:00:50.748Z,102262.97
2022-12-03T03:03:18.704Z,102256.66
2022-12-03T03:05:46.221Z,102263.63
2022-12-03T03:08:13.537Z,102260.13
2022-12-03T03:10:41.774Z,102258.25
2022-12-03T03:13:12.361Z,102259.94
2022-12-03T03:15:41.003Z,102256.34
2022-12-03T03:18:09.005Z,102256.25
2022-12-03T03:20:36.119Z,102248.22
2022-12-03T03:23:07.164Z,102255.13
2022-12-03T03:25:33.609Z,102242.56
2022-12-03T03:28:00.074Z,102248.50
2022-12-03T03:30:29.078Z,102250.28
2022-12-03T03:32:55.603Z,102249.13
2022-12-03T03:35:24.041Z,102241.84
2022-12-03T03:37:51.701Z,102238.28
2022-12-03T03:40:18.324Z,102242.59
2022-12-03T03:42:44.725Z,102237.94
2022-12-03T03:45:11.318Z,102238.81
2022-12-03T03:47:37.913Z,102233.53
2022-12-03T03:50:05.574Z,102211.59
2022-12-03T03:52:32.219Z,102236.81
2022-12-03T03:54:59.102Z,102239.34
2022-12-03T03:57:25.658Z,102232.16
2022-12-03T03:59:52.919Z,102232.06
2022-12-03T04:02:22.068Z,102230.28
2022-12-03T04:04:49.256Z,102228.47
2022-12-03T04:07:16.431Z,102224.25
2022-12-03T04:09:43.022Z,102225.72
2022-12-03T04:12:29.901Z,102221.28
2022-12-03T04:14:56.321Z,102217.69
2022-12-03T04:17:22.844Z,102222.91
2022-12-03T04:19:49.334Z,102214.25
2022-12-03T04:22:34.284Z,102213.28
2022-12-03T04:25:19.036Z,102205.47
2022-12-03T04:28:04.434Z,102213.91
2022-12-03T04:30:30.877Z,102210.25
2022-12-03T04:33:16.110Z,102209.91
2022-12-03T04:35:42.713Z,102205.38
2022-12-03T04:38:14.955Z,102191.22
2022-12-03T04:41:00.641Z,102195.34
2022-12-03T04:43:28.478Z,102192.72
2022-12-03T04:45:54.985Z,102198.09
2022-12-03T04:48:21.464Z,102186.91
2022-12-03T04:50:48.169Z,102194.59
2022-12-03T04:53:14.891Z,102194.59
2022-12-03T04:55:41.442Z,102183.19
2022-12-03T04:58:08.024Z,102191.13
2022-12-03T05:00:36.721Z,102195.47
2022-12-03T05:03:03.286Z,102184.16
2022-12-03T05:05:29.905Z,102188.81
2022-12-03T05:07:56.425Z,102187.84
2022-12-03T05:10:22.910Z,102190.47
2022-12-03T05:12:49.368Z,102191.34
2022-12-03T05:15:15.795Z,102199.25
2022-12-03T05:17:42.195Z,102188.81
2022-12-03T05:20:29.800Z,102193.22
2022-12-03T05:22:56.770Z,102190.81
2022-12-03T05:25:23.240Z,102190.69
2022-12-03T05:27:49.634Z,102189.97
2022-12-03T05:30:16.286Z,102191.03
2022-12-03T05:32:42.807Z,102195.34
2022-12-03T05:35:10.147Z,102181.31
2022-12-03T05:37:36.679Z,102185.66
2022-12-03T05:40:03.632Z,102184.69
2022-12-03T05:42:48.862Z,102163.50
2022-12-03T05:45:15.457Z,102175.19
2022-12-03T05:47:41.863Z,102168.22
2022-12-03T05:50:08.567Z,102175.19
2022-12-03T05:52:35.029Z,102165.47
2022-12-03T05:55:01.701Z,102169.94
2022-12-03T05:57:28.214Z,102165.59
2022-12-03T05:59:54.594Z,102160.53
2022-12-03T06:02:21.131Z,102160.41
2022-12-03T06:04:48.725Z,102163.91
2022-12-03T06:07:15.128Z,102147.88
2022-12-03T06:09:41.578Z,102150.19
2022-12-03T06:12:11.425Z,102158.63
2022-12-03T06:14:37.855Z,102153.47
2022-12-03T06:17:05.034Z,102131.44
2022-12-03T06:19:31.596Z,102149.22
2022-12-03T06:21:58.016Z,102149.97
2022-12-03T06:24:24.514Z,102145.66
2022-12-03T06:26:51.010Z,102155.25
2022-12-03T06:29:17.407Z,102147.34
2022-12-03T06:31:43.916Z,102142.16
2022-12-03T06:34:10.431Z,102139.66
2022-12-03T06:36:36.832Z,102140.69
2022-12-03T06:39:04.340Z,102143.25
2022-12-03T06:41:30.826Z,102140.59
2022-12-03T06:43:57.224Z,102145.03
2022-12-03T06:46:23.691Z,102146.81
2022-12-03T06:48:50.205Z,102133.63
2022-12-03T06:51:16.626Z,102136.38
2022-12-03T06:53:43.081Z,102134.59
2022-12-03T06:56:09.908Z,102133.63
2022-12-03T06:58:36.360Z,102137.97
2022-12-03T07:01:02.804Z,102139.75
2022-12-03T07:03:29.250Z,102138.78
2022-12-03T07:05:55.777Z,102137.97
2022-12-03T07:08:22.180Z,102137.22
2022-12-03T07:10:48.667Z,102139.88
2022-12-03T07:13:15.061Z,102135.53
2022-12-03T07:15:41.529Z,102139.66
2022-12-03T07:18:08.048Z,102137.22
2022-12-03T07:20:34.466Z,102137.22
2022-12-03T07:23:00.884Z,102139.97
2022-12-03T07:25:27.422Z,102142.59
2022-12-03T07:27:53.812Z,102136.38
2022-12-03T07:30:20.902Z,102145.97
2022-12-03T07:32:48.640Z,102139.88
2022-12-03T07:35:15.151Z,102143.44
2022-12-03T07:37:42.763Z,102153.28
2022-12-03T07:40:09.983Z,102154.94
2022-12-03T07:42:36.483Z,102146.19
2022-12-03T07:45:03.553Z,102152.31
2022-12-03T07:47:30.080Z,102154.84
2022-12-03T07:49:56.601Z,102145.44
2022-12-03T07:52:23.003Z,102147.03
2022-12-03T07:54:49.431Z,102153.28
2022-12-03T07:57:15.846Z,102159.25
2022-12-03T07:59:42.355Z,102143.66
2022-12-03T08:02:09.192Z,102155.06
2022-12-03T08:04:36.654Z,102156.84
2022-12-03T08:07:03.144Z,102154.19
2022-12-03T08:09:29.594Z,102152.53
2022-12-03T08:12:14.783Z,102147.34
2022-12-03T08:14:41.280Z,102142.78
2022-12-03T08:17:12.532Z,102149.13
2022-12-03T08:19:39.291Z,102156.94
2022-12-03T08:22:16.307Z,102144.81
2022-12-03T08:24:44.794Z,102135.97
2022-12-03T08:27:18.976Z,102131.72
2022-12-03T08:29:45.773Z,102136.88
2022-12-03T08:32:13.033Z,102129.09
2022-12-03T08:34:42.837Z,102138.59
2022-12-03T08:37:16.349Z,102133.31
2022-12-03T08:39:50.919Z,102126.34
2022-12-03T08:42:41.954Z,102123.69
2022-12-03T08:45:32.138Z,102123.69
2022-12-03T08:48:02.427Z,102123.81
2022-12-03T08:50:31.526Z,102123.00
2022-12-03T08:53:11.355Z,102123.81
2022-12-03T08:55:39.247Z,102130.03
2022-12-03T08:58:22.771Z,102128.25
2022-12-03T09:00:55.087Z,102130.91
2022-12-03T09:03:21.592Z,102128.03
2022-12-03T09:05:48.160Z,102131.44
2022-12-03T09:08:14.700Z,102130.78
2022-12-03T09:10:41.188Z,102138.91
2022-12-03T09:13:07.737Z,102119.09
2022-12-03T09:15:34.185Z,102113.28
2022-12-03T09:18:00.687Z,102121.50
2022-12-03T09:20:27.165Z,102116.34
2022-12-03T09:22:53.553Z,102117.31
2022-12-03T09:25:20.081Z,102117.31
2022-12-03T09:27:46.630Z,102118.34
2022-12-03T09:30:13.445Z,102113.69
2022-12-03T09:32:39.916Z,102123.28
2022-12-03T09:35:06.939Z,102115.50
2022-12-03T09:37:33.476Z,102107.56
2022-12-03T09:40:00.129Z,102102.94
2022-12-03T09:42:27.023Z,102100.53
2022-12-03T09:44:54.496Z,102089.13
2022-12-03T09:47:21.406Z,102094.41
2022-12-03T09:49:48.115Z,102099.88
2022-12-03T09:52:23.911Z,102091.44
2022-12-03T09:54:53.951Z,102096.84
2022-12-03T09:57:20.770Z,102095.97
2022-12-03T09:59:47.352Z,102102.97
2022-12-03T10:02:31.699Z,102107.28
2022-12-03T10:04:58.721Z,102099.34
2022-12-03T10:07:25.962Z,102096.72
2022-12-03T10:09:53.138Z,102104.84
2022-12-03T10:12:23.955Z,102095.97
2022-12-03T10:14:51.527Z,102093.34
2022-12-03T10:17:18.376Z,102065.28
2022-12-03T10:19:45.055Z,102078.72
2022-12-03T10:22:11.502Z,102089.78
2022-12-03T10:24:38.470Z,102086.06
2022-12-03T10:27:37.297Z,102086.06
2022-12-03T10:30:14.397Z,102081.97
2022-12-03T10:32:47.382Z,102083.00
2022-12-03T10:35:17.784Z,102076.38
2022-12-03T10:38:03.999Z,102080.91
2022-12-03T10:40:36.364Z,102074.16
2022-12-03T10:43:14.503Z,102069.75
2022-12-03T10:45:41.818Z,102066.38
2022-12-03T10:48:27.509Z,102061.09
2022-12-03T10:50:56.479Z,102066.91
2022-12-03T10:53:27.049Z,102066.91
2022-12-03T10:55:59.343Z,102057.50
2022-12-03T10:58:45.022Z,102052.88
2022-12-03T11:01:21.335Z,102062.56
2022-12-03T11:03:48.636Z,102043.56
2022-12-03T11:06:17.664Z,102056.34
2022-12-03T11:08:56.569Z,102045.16
2022-12-03T11:11:29.879Z,102050.97
2022-12-03T11:13:59.155Z,102045.81
2022-12-03T11:16:40.856Z,102052.13
2022-12-03T11:19:13.495Z,102043.38
2022-12-03T11:22:11.676Z,102050.66
2022-12-03T11:24:39.754Z,102053.28
2022-12-03T11:27:16.358Z,102035.56
2022-12-03T11:29:57.028Z,102039.28
2022-12-03T11:32:38.839Z,102038.75
2022-12-03T11:35:35.775Z,102036.44
2022-12-03T11:38:41.013Z,102034.72
2022-12-03T11:41:31.623Z,102032.72
2022-12-03T11:44:29.321Z,102002.16
2022-12-03T11:46:57.371Z,102026.09
2022-12-03T11:49:34.574Z,102033.16
2022-12-03T11:52:04.280Z,102025.38
2022-12-03T11:54:34.409Z,102025.44
2022-12-03T11:57:01.365Z,102012.81
2022-12-03T11:59:28.129Z,102028.28
2022-12-03T12:01:54.598Z,102000.16
2022-12-03T12:04:31.012Z,102016.94
2022-12-03T12:06:57.563Z,102019.88
2022-12-03T12:09:50.834Z,102015.34
2022-12-03T12:12:31.872Z,102009.31
2022-12-03T12:14:59.386Z,102003.31
2022-12-03T12:17:43.837Z,102003.31
2022-12-03T12:20:13.918Z,101999.97
2022-12-03T12:22:40.349Z,101999.97
2022-12-03T12:25:40.407Z,101986.56
2022-12-03T12:28:07.153Z,101984.69
2022-12-03T12:30:33.798Z,101975.31
2022-12-03T12:33:07.661Z,101978.47
2022-12-03T12:35:34.237Z,101968.25
2022-12-03T12:38:06.504Z,101971.00
2022-12-03T12:40:46.795Z,101974.56
2022-12-03T12:43:26.103Z,101967.91
2022-12-03T12:45:55.013Z,101974.13
2022-12-03T12:48:34.546Z,101972.03
2022-12-03T12:51:10.837Z,101964.66
2022-12-03T12:53:39.424Z,101969.72
2022-12-03T12:56:24.593Z,101967.09
2022-12-03T12:58:51.738Z,101964.16
2022-12-03T13:01:30.199Z,101968.44
2022-12-03T13:03:57.451Z,101974.69
2022-12-03T13:06:27.558Z,101968.44
2022-12-03T13:08:54.494Z,101966.97
2022-12-03T13:11:41.410Z,101966.75
2022-12-03T13:14:21.818Z,101971.81
2022-12-03T13:16:50.674Z,101962.97
2022-12-03T13:19:39.624Z,101948.00
2022-12-03T13:22:18.434Z,101956.22
2022-12-03T13:24:44.898Z,101954.44
2022-12-03T13:27:17.350Z,101957.06
2022-12-03T13:29:51.400Z,101960.34
2022-12-03T13:32:23.507Z,101954.13
2022-12-03T13:34:55.187Z,101945.25
2022-12-03T13:37:26.900Z,101949.38
2022-12-03T13:39:56.612Z,101938.75
2022-12-03T13:42:39.600Z,101939.06
2022-12-03T13:45:31.004Z,101944.13
2022-12-03T13:48:03.618Z,101940.84
2022-12-03T13:50:46.909Z,101936.53
2022-12-03T13:53:28.056Z,101933.38
2022-12-03T13:56:13.945Z,101932.41
2022-12-03T13:58:40.414Z,101922.53
2022-12-03T14:01:07.199Z,101923.59
2022-12-03T14:03:33.790Z,101924.00
2022-12-03T14:06:00.268Z,101919.69
2022-12-03T14:08:26.696Z,101920.84
2022-12-03T14:10:58.586Z,101915.56
2022-12-03T14:13:26.682Z,101916.31
2022-12-03T14:15:53.182Z,101894.19
2022-12-03T14:18:19.595Z,101915.25
2022-12-03T14:20:46.173Z,101914.72
2022-12-03T14:23:12.615Z,101920.09
2022-12-03T14:25:39.071Z,101909.44
2022-12-03T14:28:08.693Z,101905.56
2022-12-03T14:30:36.473Z,101899.25
2022-12-03T14:33:02.943Z,101908.63
2022-12-03T14:35:29.374Z,101907.03
2022-12-03T14:37:55.789Z,101902.50
2022-12-03T14:40:22.609Z,101903.53
2022-12-03T14:42:49.062Z,101902.19
2022-12-03T14:45:15.485Z,101896.91
2022-12-03T14:47:41.993Z,101899.66
2022-12-03T14:50:13.335Z,101907.44
2022-12-03T14:52:40.294Z,101904.59
2022-12-03T14:55:07.075Z,101902.19
2022-12-03T14:57:34.571Z,101899.78
2022-12-03T15:00:01.034Z,101901.66
2022-12-03T15:02:28.845Z,101905.38
2022-12-03T15:04:55.411Z,101898.38
2022-12-03T15:07:22.012Z,101892.41
2022-12-03T15:09:48.510Z,101892.41
2022-12-03T15:12:15.136Z,101890.94
2022-12-03T15:14:42.474Z,101887.03
2022-12-03T15:17:08.929Z,101884.59
2022-12-03T15:19:35.426Z,101887.97
2022-12-03T15:22:01.851Z,101893.03
2022-12-03T15:24:28.682Z,101894.81
2022-12-03T15:26:55.883Z,101899.31
2022-12-03T15:29:22.368Z,101889.75
2022-12-03T15:31:48.802Z,101896.91
2022-12-03T15:34:21.848Z,101896.16
2022-12-03T15:36:49.092Z,101904.91
2022-12-03T15:39:16.514Z,101907.75
2022-12-03T15:41:42.928Z,101907.00
2022-12-03T15:44:09.374Z,101900.72
2022-12-03T15:46:35.920Z,101901.09
2022-12-03T15:49:02.587Z,101901.09
2022-12-03T15:51:29.030Z,101893.22
2022-12-03T15:53:55.528Z,101902.81
2022-12-03T15:56:21.987Z,101898.59
2022-12-03T15:58:48.441Z,101904.59
2022-12-03T16:01:15.183Z,101892.28
2022-12-03T16:03:41.748Z,101884.34
2022-12-03T16:06:08.768Z,101898.16
2022-12-03T16:08:35.313Z,101898.69
2022-12-03T16:11:01.916Z,101897.19
2022-12-03T16:13:28.373Z,101886.13
2022-12-03T16:15:54.909Z,101885.31
2022-12-03T16:18:21.553Z,101889.50
2022-12-03T16:20:47.957Z,101893.75
2022-12-03T16:23:14.379Z,101896.44
2022-12-03T16:25:40.757Z,101898.53
2022-12-03T16:28:07.175Z,101895.91
2022-12-03T16:30:33.686Z,101897.94
2022-12-03T16:33:00.142Z,101887.06
2022-12-03T16:35:26.594Z,101879.69
2022-12-03T16:37:54.045Z,101886.44
2022-12-03T16:40:20.535Z,101892.03
2022-12-03T16:42:47.001Z,101892.94
2022-12-03T16:45:16.370Z,101883.78
2022-12-03T16:47:42.962Z,101890.19
2022-12-03T16:50:15.896Z,101885.97
2022-12-03T16:52:47.253Z,101887.69
2022-12-03T16:55:13.692Z,101877.88
2022-12-03T16:57:40.106Z,101886.81
2022-12-03T17:00:07.632Z,101877.81
2022-12-03T17:02:34.158Z,101885.97
2022-12-03T17:05:00.620Z,101879.88
2022-12-03T17:07:27.244Z,101882.31
2022-12-03T17:09:53.914Z,101875.97
2022-12-03T17:12:20.513Z,101887.56
2022-12-03T17:14:46.983Z,101890.31
2022-12-03T17:17:13.375Z,101883.44
2022-12-03T17:19:39.868Z,101882.69
2022-12-03T17:22:06.300Z,101885.22
2022-12-03T17:24:32.752Z,101888.41
2022-12-03T17:26:59.171Z,101903.34
2022-12-03T17:29:25.569Z,101896.38
2022-12-03T17:31:52.076Z,101893.75
2022-12-03T17:34:18.512Z,101886.63
2022-12-03T17:36:44.962Z,101888.31
2022-12-03T17:39:11.363Z,101883.66
2022-12-03T17:41:37.842Z,101887.16
2022-12-03T17:44:09.776Z,101887.06
2022-12-03T17:46:37.257Z,101882.97
2022-12-03T17:49:03.814Z,101884.72
2022-12-03T17:51:30.291Z,101883.88
2022-12-03T17:53:56.711Z,101881.47
2022-12-03T17:56:23.117Z,101881.25
2022-12-03T17:58:49.530Z,101882.22
2022-12-03T18:01:15.916Z,101876.41
2022-12-03T18:03:42.563Z,101874.31
2022-12-03T18:06:09.000Z,101870.31
2022-12-03T18:08:35.399Z,101873.88
2022-12-03T18:11:01.887Z,101865.34
2022-12-03T18:13:28.398Z,101865.03
2022-12-03T18:15:54.961Z,101880.06
2022-12-03T18:18:21.548Z,101853.00
2022-12-03T18:20:48.109Z,101871.47
2022-12-03T18:23:14.614Z,101865.34
2022-12-03T18:25:41.754Z,101863.56
2022-12-03T18:28:08.218Z,101860.41
2022-12-03T18:30:34.911Z,101840.88
2022-12-03T18:33:01.407Z,101863.31
2022-12-03T18:35:28.186Z,101856.19
2022-12-03T18:37:54.774Z,101851.78
2022-12-03T18:40:23.968Z,101854.41
2022-12-03T18:42:50.779Z,101853.66
2022-12-03T18:45:19.318Z,101843.34
2022-12-03T18:47:45.869Z,101853.75
2022-12-03T18:50:13.184Z,101846.91
2022-12-03T18:52:40.466Z,101845.31
2022-12-03T18:55:07.773Z,101846.16
2022-12-03T18:57:34.342Z,101855.63
2022-12-03T19:00:00.767Z,101842.81
2022-12-03T19:02:54.165Z,101843.84
2022-12-03T19:05:13.672Z,101847.75
2022-12-03T19:07:40.180Z,101844.56
2022-12-03T19:10:07.436Z,101857.41
2022-12-03T19:12:33.867Z,101855.28
2022-12-03T19:15:00.459Z,101857.81
2022-12-03T19:17:27.512Z,101848.16
2022-12-03T19:19:54.817Z,101866.25
2022-12-03T19:22:21.815Z,101860.44
2022-12-03T19:24:48.349Z,101852.88
2022-12-03T19:27:15.141Z,101855.41
2022-12-03T19:29:41.721Z,101847.63
2022-12-03T19:32:08.949Z,101849.19
2022-12-03T19:34:36.005Z,101850.16
2022-12-03T19:37:02.436Z,101848.44
2022-12-03T19:39:28.820Z,101850.97
2022-12-03T19:41:55.333Z,101849.19
2022-12-03T19:44:21.745Z,101849.19
2022-12-03T19:46:49.460Z,101843.38
2022-12-03T19:49:18.494Z,101858.84
2022-12-03T19:51:44.942Z,101857.94
2022-12-03T19:54:12.011Z,101855.78
2022-12-03T19:56:38.854Z,101851.84
2022-12-03T19:59:05.794Z,101851.69
2022-12-03T20:01:34.290Z,101850.84
2022-12-03T20:04:02.256Z,101854.31
2022-12-03T20:06:33.067Z,101849.13
2022-12-03T20:09:04.274Z,101853.00
2022-12-03T20:11:32.614Z,101858.47
2022-12-03T20:14:07.943Z,101855.75
2022-12-03T20:16:34.943Z,101855.19
2022-12-03T20:19:04.780Z,101855.09
2022-12-03T20:21:34.343Z,101857.31
2022-12-03T20:24:01.390Z,101853.22
2022-12-03T20:26:28.814Z,101845.41
2022-12-03T20:28:55.971Z,101853.00
2022-12-03T20:31:25.213Z,101838.47
2022-12-03T20:33:55.830Z,101839.88
2022-12-03T20:36:22.915Z,101846.91
2022-12-03T20:38:53.963Z,101830.28
2022-12-03T20:41:20.930Z,101815.34
2022-12-03T20:43:47.934Z,101832.19
2022-12-03T20:46:23.193Z,101828.50
2022-12-03T20:48:49.766Z,101825.25
2022-12-03T20:51:19.813Z,101821.59
2022-12-03T20:53:46.592Z,101823.25
2022-12-03T20:56:21.933Z,101824.13
2022-12-03T20:58:49.326Z,101833.03
2022-12-03T21:01:19.078Z,101819.88
2022-12-03T21:03:46.558Z,101817.25
2022-12-03T21:06:13.623Z,101816.59
2022-12-03T21:08:42.561Z,101808.09
2022-12-03T21:11:21.268Z,101811.97
2022-12-03T21:13:47.941Z,101802.22
2022-12-03T21:16:17.233Z,101801.91
2022-12-03T21:18:44.421Z,101803.69
2022-12-03T21:21:13.142Z,101798.44
2022-12-03T21:23:40.156Z,101810.09
2022-12-03T21:26:11.345Z,101806.41
2022-12-03T21:28:39.428Z,101812.72
2022-12-03T21:31:10.293Z,101809.34
2022-12-03T21:33:37.126Z,101811.13
2022-12-03T21:36:05.032Z,101807.75
2022-12-03T21:38:32.680Z,101812.06
2022-12-03T21:41:00.078Z,101801.00
2022-12-03T21:43:27.012Z,101798.47
2022-12-03T21:45:53.645Z,101802.91
2022-12-03T21:48:20.798Z,101797.84
2022-12-03T21:51:00.215Z,101802.13
2022-12-03T21:53:26.944Z,101795.75
2022-12-03T21:55:53.427Z,101791.84
2022-12-03T21:58:19.950Z,101804.97
2022-12-03T22:00:46.874Z,101809.06
2022-12-03T22:03:13.388Z,101818.00
2022-12-03T22:05:40.016Z,101812.75
2022-12-03T22:08:07.424Z,101812.84
2022-12-03T22:10:36.001Z,101807.69
2022-12-03T22:13:02.458Z,101812.00
2022-12-03T22:15:28.905Z,101801.69
2022-12-03T22:17:55.307Z,101800.09
2022-12-03T22:20:21.848Z,101795.69
2022-12-03T22:22:48.335Z,101786.06
2022-12-03T22:25:15.114Z,101807.16
2022-12-03T22:27:41.578Z,101803.97
2022-12-03T22:30:08.454Z,101802.91
2022-12-03T22:32:34.966Z,101804.53
2022-12-03T22:35:01.434Z,101795.69
2022-12-03T22:37:27.874Z,101792.22
2022-12-03T22:39:54.669Z,101801.91
2022-12-03T22:42:21.237Z,101809.47
2022-12-03T22:44:47.715Z,101799.91
2022-12-03T22:47:14.146Z,101800.75
2022-12-03T22:49:40.614Z,101805.22
2022-12-03T22:52:08.188Z,101798.47
2022-12-03T22:54:34.576Z,101795.94
2022-12-03T22:57:01.051Z,101800.38
2022-12-03T22:59:27.624Z,101795.66
2022-12-03T23:01:54.104Z,101791.75
2022-12-03T23:04:20.573Z,101796.13
2022-12-03T23:06:47.039Z,101798.88
2022-12-03T23:09:13.596Z,101795.22
2022-12-03T23:11:40.201Z,101795.94
2022-12-03T23:14:06.629Z,101797.09
2022-12-03T23:16:33.783Z,101800.53
2022-12-03T23:19:01.446Z,101796.03
2022-12-03T23:21:30.852Z,101791.75
2022-12-03T23:23:59.091Z,101791.00
2022-12-03T23:26:25.679Z,101786.38
2022-12-03T23:28:52.220Z,101777.66
2022-12-03T23:31:26.352Z,101784.59
2022-12-03T23:33:53.630Z,101787.41
2022-12-03T23:36:21.546Z,101784.59
2022-12-03T23:38:48.016Z,101778.72
2022-12-03T23:41:17.789Z,101781.97
2022-12-03T23:43:44.523Z,101779.16
2022-12-03T23:46:16.914Z,101783.56
2022-12-03T23:48:43.780Z,101777.38
2022-12-03T23:51:15.982Z,101775.88
2022-12-03T23:53:42.941Z,101777.66
2022-12-03T23:56:12.088Z,101778.72
2022-12-03T23:58:38.746Z,101784.06
